createdAt,value
2023-01-08T00:01:51.010Z,2.77
2023-01-08T00:04:36.385Z,2.93
2023-01-08T00:07:21.850Z,2.67
2023-01-08T00:10:07.864Z,2.43
2023-01-08T00:12:55.046Z,3.57
2023-01-08T00:15:40.647Z,3.00
2023-01-08T00:18:27.302Z,3.27
2023-01-08T00:21:13.274Z,2.83
2023-01-08T00:23:58.995Z,2.90
2023-01-08T00:26:46.752Z,2.50
2023-01-08T00:29:34.689Z,2.93
2023-01-08T00:32:20.004Z,2.60
2023-01-08T00:35:06.158Z,2.47
2023-01-08T00:37:52.802Z,3.07
2023-01-08T00:40:40.347Z,2.87
2023-01-08T00:43:26.130Z,2.60
2023-01-08T00:46:11.674Z,2.97
2023-01-08T00:48:57.548Z,2.63
2023-01-08T00:51:43.130Z,2.47
2023-01-08T00:54:30.901Z,4.03
2023-01-08T00:57:16.474Z,2.90
2023-01-08T01:00:02.015Z,2.77
2023-01-08T01:02:49.855Z,2.57
2023-01-08T01:05:35.870Z,3.53
2023-01-08T01:08:23.635Z,3.63
2023-01-08T01:11:13.555Z,3.30
2023-01-08T01:13:58.952Z,2.70
2023-01-08T01:16:44.530Z,2.73
2023-01-08T01:19:30.328Z,3.13
2023-01-08T01:22:15.755Z,3.57
2023-01-08T01:25:01.491Z,3.73
2023-01-08T01:27:47.094Z,3.73
2023-01-08T01:30:32.542Z,3.33
2023-01-08T01:33:18.155Z,3.27
2023-01-08T01:36:03.844Z,2.90
2023-01-08T01:38:53.497Z,3.87
2023-01-08T01:41:46.918Z,3.77
2023-01-08T01:44:40.271Z,3.50
2023-01-08T01:47:33.033Z,3.10
2023-01-08T01:50:25.032Z,2.77
2023-01-08T01:53:22.206Z,4.40
2023-01-08T01:56:10.501Z,3.67
2023-01-08T01:58:56.303Z,3.23
2023-01-08T02:01:43.388Z,4.67
2023-01-08T02:04:31.266Z,4.17
2023-01-08T02:07:27.608Z,3.27
2023-01-08T02:10:15.965Z,3.33
2023-01-08T02:13:20.992Z,3.50
2023-01-08T02:16:18.443Z,6.47
2023-01-08T02:19:21.527Z,4.03
2023-01-08T02:22:17.872Z,3.63
2023-01-08T02:25:10.119Z,4.00
2023-01-08T02:27:59.097Z,3.40
2023-01-08T02:30:45.704Z,5.10
2023-01-08T02:33:33.324Z,4.40
2023-01-08T02:36:43.755Z,4.00
2023-01-08T02:40:06.485Z,4.60
2023-01-08T02:43:03.879Z,3.27
2023-01-08T02:45:56.953Z,4.00
2023-01-08T02:48:47.676Z,4.17
2023-01-08T02:51:52.936Z,5.27
2023-01-08T02:54:39.923Z,3.43
2023-01-08T02:57:29.501Z,5.60
2023-01-08T03:00:15.496Z,4.37
2023-01-08T03:03:15.773Z,6.20
2023-01-08T03:06:12.733Z,4.10
2023-01-08T03:09:00.718Z,3.73
2023-01-08T03:12:06.540Z,4.63
2023-01-08T03:15:06.276Z,8.10
2023-01-08T03:18:01.380Z,4.87
2023-01-08T03:20:49.129Z,4.43
2023-01-08T03:23:37.335Z,5.77
2023-01-08T03:26:27.115Z,4.70
2023-01-08T03:29:15.787Z,6.43
2023-01-08T03:32:05.794Z,3.83
2023-01-08T03:34:56.094Z,7.80
2023-01-08T03:37:47.084Z,5.07
2023-01-08T03:40:40.397Z,6.43
2023-01-08T03:43:26.314Z,5.80
2023-01-08T03:46:25.075Z,3.80
2023-01-08T03:49:11.907Z,4.10
2023-01-08T03:51:57.564Z,4.33
2023-01-08T03:54:42.993Z,5.03
2023-01-08T03:57:28.702Z,6.10
2023-01-08T04:00:14.751Z,5.83
2023-01-08T04:03:00.267Z,5.97
2023-01-08T04:05:45.595Z,4.70
2023-01-08T04:08:31.203Z,4.50
2023-01-08T04:11:17.122Z,6.33
2023-01-08T04:14:04.911Z,4.43
2023-01-08T04:16:50.159Z,5.23
2023-01-08T04:19:36.189Z,4.03
2023-01-08T04:22:23.886Z,5.30
2023-01-08T04:25:12.214Z,4.40
2023-01-08T04:27:57.385Z,5.60
2023-01-08T04:30:42.866Z,8.90
2023-01-08T04:33:28.412Z,4.83
2023-01-08T04:36:13.874Z,7.73
2023-01-08T04:38:59.356Z,6.70
2023-01-08T04:41:44.970Z,6.80
2023-01-08T04:44:33.141Z,5.93
2023-01-08T04:47:18.520Z,8.03
2023-01-08T04:50:06.190Z,6.70
2023-01-08T04:52:51.928Z,6.47
2023-01-08T04:55:40.041Z,7.73
2023-01-08T04:58:25.697Z,5.70
2023-01-08T05:01:20.601Z,7.23
2023-01-08T05:04:06.321Z,4.33
2023-01-08T05:06:51.887Z,5.90
2023-01-08T05:09:39.688Z,6.30
2023-01-08T05:12:27.340Z,5.37
2023-01-08T05:15:14.765Z,4.20
2023-01-08T05:18:01.696Z,5.20
2023-01-08T05:20:46.959Z,5.93
2023-01-08T05:23:33.302Z,5.20
2023-01-08T05:26:21.496Z,5.37
2023-01-08T05:29:09.273Z,3.93
2023-01-08T05:31:54.476Z,4.53
2023-01-08T05:34:39.649Z,6.97
2023-01-08T05:37:25.002Z,4.50
2023-01-08T05:40:10.844Z,6.87
2023-01-08T05:43:00.884Z,5.33
2023-01-08T05:45:46.076Z,4.90
2023-01-08T05:48:33.598Z,4.97
2023-01-08T05:51:18.943Z,4.77
2023-01-08T05:54:06.938Z,4.70
2023-01-08T05:56:52.324Z,8.00
2023-01-08T05:59:37.856Z,4.70
2023-01-08T06:02:23.189Z,4.07
2023-01-08T06:05:08.771Z,4.80
2023-01-08T06:07:53.985Z,3.80
2023-01-08T06:10:39.695Z,3.67
2023-01-08T06:13:25.141Z,3.20
2023-01-08T06:16:11.307Z,4.23
2023-01-08T06:18:57.055Z,4.10
2023-01-08T06:21:45.458Z,3.80
2023-01-08T06:24:33.025Z,3.53
2023-01-08T06:27:18.730Z,3.57
2023-01-08T06:30:05.123Z,4.70
2023-01-08T06:32:55.147Z,3.57
2023-01-08T06:35:41.049Z,3.53
2023-01-08T06:38:27.014Z,3.67
2023-01-08T06:41:12.538Z,3.23
2023-01-08T06:43:58.124Z,3.17
2023-01-08T06:46:43.851Z,6.10
2023-01-08T06:49:29.539Z,4.30
2023-01-08T06:52:17.320Z,3.33
2023-01-08T06:55:04.903Z,3.93
2023-01-08T06:57:59.465Z,3.57
2023-01-08T07:00:47.266Z,3.10
2023-01-08T07:03:32.655Z,6.13
2023-01-08T07:06:22.398Z,3.07
2023-01-08T07:09:07.988Z,3.17
2023-01-08T07:11:53.196Z,4.47
2023-01-08T07:14:38.968Z,3.80
2023-01-08T07:17:24.263Z,4.00
2023-01-08T07:20:10.533Z,3.00
2023-01-08T07:22:58.191Z,3.80
2023-01-08T07:25:47.398Z,3.57
2023-01-08T07:28:33.422Z,6.37
2023-01-08T07:31:19.047Z,3.10
2023-01-08T07:34:04.640Z,3.63
2023-01-08T07:36:50.375Z,5.70
2023-01-08T07:39:36.917Z,4.70
2023-01-08T07:42:22.264Z,3.00
2023-01-08T07:45:08.423Z,3.93
2023-01-08T07:47:54.021Z,2.90
2023-01-08T07:50:41.891Z,3.60
2023-01-08T07:53:29.662Z,4.43
2023-01-08T07:56:18.465Z,6.80
2023-01-08T07:59:06.352Z,2.87
2023-01-08T08:01:56.498Z,3.20
2023-01-08T08:04:42.014Z,6.00
2023-01-08T08:07:34.626Z,3.30
2023-01-08T08:10:22.112Z,3.00
2023-01-08T08:13:08.322Z,2.70
2023-01-08T08:15:55.845Z,2.70
2023-01-08T08:18:41.565Z,2.93
2023-01-08T08:21:30.663Z,3.10
2023-01-08T08:24:18.583Z,3.20
2023-01-08T08:27:04.299Z,3.27
2023-01-08T08:29:49.827Z,2.90
2023-01-08T08:32:35.481Z,4.80
2023-01-08T08:35:24.457Z,3.03
2023-01-08T08:38:11.885Z,3.60
2023-01-08T08:40:57.283Z,2.77
2023-01-08T08:43:42.611Z,3.30
2023-01-08T08:46:28.850Z,3.40
2023-01-08T08:49:17.186Z,3.50
2023-01-08T08:52:03.705Z,2.67
2023-01-08T08:54:49.408Z,5.83
2023-01-08T08:57:35.160Z,2.50
2023-01-08T09:00:20.996Z,3.03
2023-01-08T09:03:08.941Z,3.00
2023-01-08T09:05:54.596Z,3.00
2023-01-08T09:08:39.772Z,4.80
2023-01-08T09:11:27.261Z,3.27
2023-01-08T09:14:12.738Z,2.67
2023-01-08T09:16:58.809Z,3.80
2023-01-08T09:19:44.307Z,2.97
2023-01-08T09:22:29.908Z,3.13
2023-01-08T09:25:15.627Z,8.20
2023-01-08T09:28:06.765Z,4.27
2023-01-08T09:30:54.566Z,5.23
2023-01-08T09:33:41.060Z,3.30
2023-01-08T09:36:26.263Z,3.50
2023-01-08T09:39:11.891Z,2.90
2023-01-08T09:42:02.684Z,2.77
2023-01-08T09:44:52.324Z,3.00
2023-01-08T09:47:42.911Z,2.30
2023-01-08T09:50:33.154Z,2.37
2023-01-08T09:53:19.237Z,4.13
2023-01-08T09:56:11.341Z,2.97
2023-01-08T09:59:01.953Z,3.67
2023-01-08T10:01:50.657Z,4.17
2023-01-08T10:04:41.282Z,3.47
2023-01-08T10:07:28.621Z,4.27
2023-01-08T10:10:27.874Z,4.37
2023-01-08T10:13:15.369Z,2.87
2023-01-08T10:16:05.309Z,3.50
2023-01-08T10:18:50.904Z,2.67
2023-01-08T10:21:43.804Z,3.40
2023-01-08T10:24:35.172Z,3.63
2023-01-08T10:27:23.032Z,2.80
2023-01-08T10:30:15.014Z,3.50
2023-01-08T10:33:13.358Z,3.43
2023-01-08T10:36:03.019Z,3.03
2023-01-08T10:39:03.150Z,3.27
2023-01-08T10:41:50.128Z,3.10
2023-01-08T10:44:36.695Z,3.80
2023-01-08T10:47:23.427Z,3.03
2023-01-08T10:50:23.491Z,3.00
2023-01-08T10:53:25.418Z,3.63
2023-01-08T10:56:25.982Z,3.33
2023-01-08T10:59:23.248Z,2.90
2023-01-08T11:02:30.525Z,3.00
2023-01-08T11:05:16.523Z,2.67
2023-01-08T11:08:06.229Z,3.13
2023-01-08T11:11:00.091Z,4.53
2023-01-08T11:13:58.267Z,4.60
2023-01-08T11:16:44.044Z,3.70
2023-01-08T11:19:32.699Z,3.33
2023-01-08T11:22:24.111Z,4.27
2023-01-08T11:25:14.653Z,6.07
2023-01-08T11:28:02.360Z,4.10
2023-01-08T11:31:16.805Z,3.20
2023-01-08T11:34:18.502Z,5.80
2023-01-08T11:37:21.994Z,3.30
2023-01-08T11:40:39.225Z,4.30
2023-01-08T11:43:39.907Z,3.67
2023-01-08T11:46:45.179Z,5.43
2023-01-08T11:49:45.570Z,5.13
2023-01-08T11:52:50.060Z,3.20
2023-01-08T11:55:51.583Z,4.83
2023-01-08T11:59:03.161Z,3.23
2023-01-08T12:02:26.494Z,4.20
2023-01-08T12:05:18.170Z,8.37
2023-01-08T12:08:40.079Z,2.97
2023-01-08T12:11:31.328Z,4.67
2023-01-08T12:14:30.615Z,3.17
2023-01-08T12:17:43.786Z,4.10
2023-01-08T12:20:38.100Z,4.27
2023-01-08T12:23:23.909Z,5.53
2023-01-08T12:26:18.496Z,3.50
2023-01-08T12:29:22.273Z,2.83
2023-01-08T12:32:36.291Z,4.17
2023-01-08T12:35:32.086Z,4.70
2023-01-08T12:38:28.997Z,3.27
2023-01-08T12:41:18.642Z,2.87
2023-01-08T12:44:12.917Z,3.80
2023-01-08T12:47:04.270Z,3.70
2023-01-08T12:50:13.237Z,3.03
2023-01-08T12:53:06.956Z,3.53
2023-01-08T12:56:21.222Z,3.50
2023-01-08T12:59:19.465Z,3.40
2023-01-08T13:02:22.930Z,3.10
2023-01-08T13:05:34.897Z,3.60
2023-01-08T13:08:34.632Z,4.40
2023-01-08T13:11:32.475Z,3.30
2023-01-08T13:14:18.078Z,4.87
2023-01-08T13:17:16.619Z,4.17
2023-01-08T13:20:06.086Z,4.00
2023-01-08T13:23:04.306Z,4.63
2023-01-08T13:25:55.479Z,3.57
2023-01-08T13:28:46.715Z,3.57
2023-01-08T13:31:41.002Z,3.57
2023-01-08T13:34:42.017Z,3.80
2023-01-08T13:37:28.266Z,4.17
2023-01-08T13:40:35.798Z,8.37
2023-01-08T13:43:23.079Z,4.37
2023-01-08T13:46:17.995Z,10.40
2023-01-08T13:49:36.292Z,4.23
2023-01-08T13:52:33.723Z,11.83
2023-01-08T13:55:28.007Z,4.20
2023-01-08T13:58:29.595Z,4.13
2023-01-08T14:01:16.732Z,4.03
2023-01-08T14:04:05.146Z,6.57
2023-01-08T14:06:51.156Z,3.97
2023-01-08T14:09:37.085Z,4.20
2023-01-08T14:12:28.941Z,5.40
2023-01-08T14:15:25.215Z,4.20
2023-01-08T14:18:14.006Z,6.23
2023-01-08T14:20:59.837Z,6.30
2023-01-08T14:23:54.143Z,4.30
2023-01-08T14:26:40.277Z,4.50
2023-01-08T14:29:30.825Z,4.67
2023-01-08T14:32:25.415Z,4.20
2023-01-08T14:35:18.140Z,4.20
2023-01-08T14:38:06.093Z,4.67
2023-01-08T14:41:05.086Z,3.83
2023-01-08T14:43:51.217Z,5.53
2023-01-08T14:46:37.027Z,8.70
2023-01-08T14:49:29.502Z,6.83
2023-01-08T14:52:18.519Z,5.97
2023-01-08T14:55:04.369Z,8.10
2023-01-08T14:57:53.293Z,6.37
2023-01-08T15:00:38.583Z,5.10
2023-01-08T15:03:32.009Z,5.30
2023-01-08T15:06:32.386Z,6.30
2023-01-08T15:09:22.262Z,5.60
2023-01-08T15:12:22.942Z,5.20
2023-01-08T15:15:24.268Z,6.43
2023-01-08T15:18:12.126Z,7.77
2023-01-08T15:20:58.213Z,7.23
2023-01-08T15:23:48.751Z,8.80
2023-01-08T15:26:34.420Z,4.70
2023-01-08T15:29:29.036Z,6.63
2023-01-08T15:32:14.459Z,5.50
2023-01-08T15:35:00.536Z,7.23
2023-01-08T15:37:47.151Z,5.57
2023-01-08T15:40:32.827Z,5.63
2023-01-08T15:43:19.361Z,6.43
2023-01-08T15:46:05.898Z,7.20
2023-01-08T15:48:51.373Z,6.07
2023-01-08T15:51:43.188Z,6.50
2023-01-08T15:54:28.708Z,8.50
2023-01-08T15:57:14.327Z,5.17
2023-01-08T16:00:02.615Z,6.13
2023-01-08T16:02:52.590Z,5.30
2023-01-08T16:05:38.356Z,6.07
2023-01-08T16:08:26.239Z,7.87
2023-01-08T16:11:12.689Z,7.57
2023-01-08T16:13:57.779Z,8.30
2023-01-08T16:16:43.373Z,9.10
2023-01-08T16:19:31.039Z,4.83
2023-01-08T16:22:16.522Z,9.03
2023-01-08T16:25:02.450Z,6.40
2023-01-08T16:27:48.432Z,6.77
2023-01-08T16:30:36.630Z,14.70
2023-01-08T16:33:23.231Z,6.83
2023-01-08T16:36:09.465Z,10.53
2023-01-08T16:38:57.678Z,8.53
2023-01-08T16:41:45.271Z,7.37
2023-01-08T16:44:33.052Z,5.77
2023-01-08T16:47:20.436Z,8.70
2023-01-08T16:50:10.491Z,6.57
2023-01-08T16:52:58.089Z,6.57
2023-01-08T16:55:44.028Z,6.50
2023-01-08T16:58:29.533Z,8.67
2023-01-08T17:01:15.261Z,8.50
2023-01-08T17:04:03.895Z,17.23
2023-01-08T17:06:50.139Z,12.17
2023-01-08T17:09:36.265Z,7.73
2023-01-08T17:12:24.647Z,8.33
2023-01-08T17:15:12.656Z,6.20
2023-01-08T17:17:58.628Z,5.73
2023-01-08T17:20:43.922Z,7.47
2023-01-08T17:23:32.156Z,6.63
2023-01-08T17:26:20.469Z,7.20
2023-01-08T17:29:06.108Z,7.00
2023-01-08T17:31:51.851Z,6.83
2023-01-08T17:34:40.524Z,6.33
2023-01-08T17:37:33.864Z,5.77
2023-01-08T17:40:19.194Z,8.67
2023-01-08T17:43:04.879Z,6.33
2023-01-08T17:45:53.581Z,6.23
2023-01-08T17:48:44.941Z,6.10
2023-01-08T17:51:32.386Z,5.40
2023-01-08T17:54:19.120Z,7.70
2023-01-08T17:57:04.648Z,6.73
2023-01-08T17:59:54.948Z,4.90
2023-01-08T18:02:40.914Z,6.13
2023-01-08T18:05:26.712Z,6.07
2023-01-08T18:08:12.565Z,5.20
2023-01-08T18:11:03.504Z,5.23
2023-01-08T18:13:48.956Z,5.77
2023-01-08T18:16:34.743Z,6.47
2023-01-08T18:19:20.717Z,5.57
2023-01-08T18:22:06.191Z,5.97
2023-01-08T18:24:51.872Z,7.67
2023-01-08T18:27:39.807Z,6.67
2023-01-08T18:30:29.001Z,9.00
2023-01-08T18:33:15.829Z,5.53
2023-01-08T18:36:09.244Z,4.97
2023-01-08T18:38:58.646Z,5.70
2023-01-08T18:42:16.615Z,7.00
2023-01-08T18:45:04.585Z,6.70
2023-01-08T18:47:55.377Z,5.67
2023-01-08T18:50:41.480Z,4.67
2023-01-08T18:53:26.944Z,6.37
2023-01-08T18:56:20.038Z,5.97
2023-01-08T18:59:06.888Z,4.27
2023-01-08T19:01:52.568Z,4.47
2023-01-08T19:04:37.910Z,10.90
2023-01-08T19:07:23.391Z,7.27
2023-01-08T19:10:12.480Z,8.83
2023-01-08T19:12:58.042Z,6.47
2023-01-08T19:15:43.610Z,6.10
2023-01-08T19:18:29.127Z,7.37
2023-01-08T19:21:17.659Z,6.20
2023-01-08T19:24:03.294Z,6.07
2023-01-08T19:26:50.821Z,8.77
2023-01-08T19:29:36.232Z,10.70
2023-01-08T19:32:23.878Z,8.20
2023-01-08T19:35:12.674Z,9.73
2023-01-08T19:38:01.029Z,6.33
2023-01-08T19:40:46.992Z,5.70
2023-01-08T19:43:45.580Z,7.13
2023-01-08T19:46:31.426Z,7.90
2023-01-08T19:49:17.072Z,6.30
2023-01-08T19:52:02.939Z,8.80
2023-01-08T19:54:50.787Z,7.07
2023-01-08T19:57:36.916Z,8.33
2023-01-08T20:00:25.363Z,9.50
2023-01-08T20:03:11.177Z,9.17
2023-01-08T20:05:56.804Z,10.20
2023-01-08T20:08:43.901Z,7.47
2023-01-08T20:11:31.570Z,7.53
2023-01-08T20:14:18.699Z,10.37
2023-01-08T20:17:05.384Z,11.00
2023-01-08T20:19:54.391Z,8.10
2023-01-08T20:22:39.673Z,6.23
2023-01-08T20:25:27.412Z,9.57
2023-01-08T20:28:15.853Z,6.57
2023-01-08T20:31:07.953Z,9.10
2023-01-08T20:33:53.672Z,6.73
2023-01-08T20:36:39.329Z,8.93
2023-01-08T20:39:25.106Z,12.47
2023-01-08T20:42:12.291Z,11.30
2023-01-08T20:45:02.647Z,6.70
2023-01-08T20:47:50.809Z,10.30
2023-01-08T20:50:36.585Z,7.17
2023-01-08T20:53:25.154Z,13.97
2023-01-08T20:56:13.448Z,9.50
2023-01-08T20:59:02.090Z,10.20
2023-01-08T21:01:47.813Z,9.73
2023-01-08T21:04:33.777Z,10.97
2023-01-08T21:07:22.104Z,11.70
2023-01-08T21:10:11.925Z,10.90
2023-01-08T21:12:58.082Z,11.37
2023-01-08T21:15:46.022Z,12.37
2023-01-08T21:18:31.741Z,9.53
2023-01-08T21:21:20.043Z,11.00
2023-01-08T21:24:09.610Z,14.43
2023-01-08T21:26:57.142Z,7.90
2023-01-08T21:29:42.827Z,9.17
2023-01-08T21:32:28.427Z,9.23
2023-01-08T21:35:13.768Z,7.43
2023-01-08T21:38:04.324Z,5.20
2023-01-08T21:41:03.933Z,7.53
2023-01-08T21:44:07.749Z,8.43
2023-01-08T21:46:53.036Z,7.77
2023-01-08T21:49:40.963Z,9.00
2023-01-08T21:52:45.363Z,8.53
2023-01-08T21:55:31.020Z,8.60
2023-01-08T21:58:16.853Z,9.67
2023-01-08T22:01:09.351Z,9.83
2023-01-08T22:03:54.924Z,7.63
2023-01-08T22:06:42.821Z,6.97
2023-01-08T22:09:28.332Z,6.90
2023-01-08T22:12:15.783Z,6.80
2023-01-08T22:15:00.992Z,7.57
2023-01-08T22:17:46.551Z,9.10
2023-01-08T22:20:32.109Z,9.27
2023-01-08T22:23:17.957Z,5.90
2023-01-08T22:26:12.261Z,5.93
2023-01-08T22:28:57.633Z,6.30
2023-01-08T22:31:42.875Z,4.90
2023-01-08T22:34:32.562Z,6.13
2023-01-08T22:37:22.226Z,7.57
2023-01-08T22:40:08.963Z,6.90
2023-01-08T22:42:55.312Z,8.23
2023-01-08T22:45:43.324Z,7.57
2023-01-08T22:48:29.092Z,6.67
2023-01-08T22:51:14.432Z,4.90
2023-01-08T22:54:00.277Z,6.20
2023-01-08T22:56:46.146Z,7.23
2023-01-08T22:59:31.361Z,7.47
2023-01-08T23:02:24.132Z,9.20
2023-01-08T23:05:10.015Z,7.60
2023-01-08T23:07:55.818Z,6.00
2023-01-08T23:10:41.405Z,7.20
2023-01-08T23:13:28.904Z,7.13
2023-01-08T23:16:18.365Z,8.07
2023-01-08T23:19:06.681Z,9.13
2023-01-08T23:21:52.451Z,6.53
2023-01-08T23:24:37.963Z,8.87
2023-01-08T23:27:27.566Z,6.17
2023-01-08T23:30:13.799Z,6.80
2023-01-08T23:33:00.672Z,5.90
2023-01-08T23:35:46.207Z,9.17
2023-01-08T23:38:31.896Z,6.23
2023-01-08T23:41:17.821Z,8.07
2023-01-08T23:44:14.380Z,6.63
2023-01-08T23:47:00.523Z,9.63
2023-01-08T23:49:46.099Z,13.00
2023-01-08T23:52:31.657Z,7.43
2023-01-08T23:55:17.169Z,6.50
2023-01-08T23:58:02.554Z,7.27
